Time;durP1;ratioP1;P1;durP2;ratioP2;P2;SDS_P1;SDS_P2;PMS_P1;PMS_P2;Temp;Humidity;BMP_temperature;BMP_pressure;BME280_temperature;BME280_humidity;BME280_pressure;Samples;Min_cycle;Max_cycle;Signal;HPM_P1;HPM_P2
2022/09/08 00:01:44;;;;;;;15.75;11.02;;;;;;;;;;5005958;28;20045;-69
2022/09/08 00:04:10;;;;;;;11.48;10.10;;;;;;;;;;5004837;28;20427;-71
2022/09/08 00:06:36;;;;;;;11.55;10.55;;;;;;;;;;5005072;28;20739;-71
2022/09/08 00:09:02;;;;;;;11.07;10.07;;;;;;;;;;5007157;28;20040;-71
2022/09/08 00:11:30;;;;;;;11.23;10.13;;;;;;;;;;5005789;28;20083;-71
2022/09/08 00:14:01;;;;;;;11.30;10.23;;;;;;;;;;5002801;28;20081;-71
2022/09/08 00:16:27;;;;;;;10.73;9.73;;;;;;;;;;5005860;28;20546;-71
2022/09/08 00:18:53;;;;;;;13.60;10.02;;;;;;;;;;5006074;28;20046;-71
2022/09/08 00:21:20;;;;;;;11.15;10.07;;;;;;;;;;5006195;28;20108;-71
2022/09/08 00:23:46;;;;;;;11.10;9.93;;;;;;;;;;5000452;28;20049;-71
2022/09/08 00:26:12;;;;;;;13.65;10.35;;;;;;;;;;5005696;28;20037;-71
2022/09/08 00:28:37;;;;;;;15.73;10.55;;;;;;;;;;5004530;28;20469;-69
2022/09/08 00:31:06;;;;;;;12.70;11.23;;;;;;;;;;5000435;28;20081;-71
2022/09/08 00:33:32;;;;;;;14.10;11.73;;;;;;;;;;5004933;28;20034;-69
2022/09/08 00:35:58;;;;;;;12.23;10.95;;;;;;;;;;5001489;28;20033;-71
2022/09/08 00:38:24;;;;;;;15.60;11.77;;;;;;;;;;5004078;28;20038;-71
2022/09/08 00:40:52;;;;;;;14.07;12.57;;;;;;;;;;5003562;28;20033;-72
2022/09/08 00:43:43;;;;;;;14.75;11.73;;;;;;;;;;5006890;28;20041;-72
2022/09/08 00:46:08;;;;;;;13.20;11.45;;;;;;;;;;5009170;28;20084;-70
2022/09/08 00:48:38;;;;;;;13.27;12.10;;;;;;;;;;5004647;28;20069;-70
2022/09/08 00:51:04;;;;;;;14.63;12.35;;;;;;;;;;5009764;28;20409;-70
2022/09/08 00:53:31;;;;;;;14.63;12.40;;;;;;;;;;5009025;28;20038;-69
2022/09/08 00:55:56;;;;;;;14.80;12.43;;;;;;;;;;5007412;28;20042;-71
2022/09/08 00:58:22;;;;;;;16.45;12.63;;;;;;;;;;5015889;28;20060;-71
2022/09/08 01:00:48;;;;;;;14.75;13.35;;;;;;;;;;5011330;28;20030;-71
2022/09/08 01:03:17;;;;;;;15.32;13.80;;;;;;;;;;5010914;28;20073;-71
2022/09/08 01:12:43;;;;;;;17.20;13.77;;;;;;;;;;5007426;28;20057;-70
2022/09/08 01:14:59;;;;;;;17.23;14.68;;;;;;;;;;5008083;28;20026;-71
2022/09/08 01:17:30;;;;;;;21.00;16.25;;;;;;;;;;5009254;28;20503;-71
2022/09/08 01:19:58;;;;;;;17.90;14.68;;;;;;;;;;5007361;28;20042;-71
2022/09/08 01:22:57;;;;;;;16.13;13.32;;;;;;;;;;5003049;28;20042;-71
2022/09/08 01:25:53;;;;;;;15.23;12.82;;;;;;;;;;5007610;28;20111;-72
2022/09/08 01:28:27;;;;;;;13.30;12.05;;;;;;;;;;5006796;28;20109;-72
2022/09/08 01:30:53;;;;;;;12.93;11.82;;;;;;;;;;5005085;28;20088;-72
2022/09/08 01:33:20;;;;;;;12.73;11.45;;;;;;;;;;5004676;28;20037;-71
2022/09/08 01:35:46;;;;;;;16.17;12.13;;;;;;;;;;5009230;28;20073;-72
2022/09/08 01:38:12;;;;;;;12.40;11.30;;;;;;;;;;5007520;28;20037;-71
2022/09/08 01:40:38;;;;;;;12.63;11.15;;;;;;;;;;5006881;28;20056;-71
2022/09/08 01:43:08;;;;;;;12.63;11.43;;;;;;;;;;5001963;28;20045;-71
2022/09/08 01:45:38;;;;;;;12.63;11.32;;;;;;;;;;5005203;28;20038;-71
2022/09/08 01:48:05;;;;;;;11.68;10.68;;;;;;;;;;5005446;28;20045;-72
2022/09/08 01:50:30;;;;;;;11.48;10.32;;;;;;;;;;5003598;28;20687;-71
2022/09/08 01:52:56;;;;;;;12.45;11.18;;;;;;;;;;5008437;28;20042;-71
2022/09/08 01:55:22;;;;;;;11.57;10.63;;;;;;;;;;5009730;28;20119;-73
2022/09/08 01:57:47;;;;;;;15.25;11.57;;;;;;;;;;5003289;28;20084;-71
2022/09/08 02:00:13;;;;;;;14.82;12.43;;;;;;;;;;5005627;28;20669;-72
2022/09/08 02:02:38;;;;;;;14.10;12.35;;;;;;;;;;5006840;28;20127;-72
2022/09/08 02:05:04;;;;;;;13.30;12.02;;;;;;;;;;4998354;28;20462;-72
2022/09/08 02:07:36;;;;;;;13.07;11.77;;;;;;;;;;5008620;28;20448;-72
2022/09/08 02:10:04;;;;;;;12.88;11.70;;;;;;;;;;5008294;28;20394;-72
2022/09/08 02:12:30;;;;;;;12.75;11.75;;;;;;;;;;5004774;28;20058;-72
2022/09/08 02:14:56;;;;;;;13.13;11.55;;;;;;;;;;5007838;28;20026;-72
2022/09/08 02:17:22;;;;;;;12.10;10.90;;;;;;;;;;5006117;28;20033;-72
2022/09/08 02:19:47;;;;;;;12.32;11.13;;;;;;;;;;5010169;28;20022;-72
2022/09/08 02:22:14;;;;;;;14.93;11.00;;;;;;;;;;5008476;28;20727;-71
2022/09/08 02:24:41;;;;;;;12.18;10.80;;;;;;;;;;5004588;28;20042;-72
2022/09/08 02:27:07;;;;;;;11.85;10.75;;;;;;;;;;5001515;28;20501;-71
2022/09/08 02:29:33;;;;;;;10.70;9.75;;;;;;;;;;5006528;28;20042;-73
2022/09/08 02:31:59;;;;;;;11.43;10.27;;;;;;;;;;5003751;28;20096;-72
2022/09/08 02:34:24;;;;;;;9.95;9.05;;;;;;;;;;5006882;28;20104;-71
2022/09/08 02:36:50;;;;;;;9.35;8.60;;;;;;;;;;5005475;28;20034;-71
2022/09/08 02:39:18;;;;;;;9.88;9.00;;;;;;;;;;5008652;28;20048;-71
2022/09/08 02:41:44;;;;;;;9.43;8.52;;;;;;;;;;5007814;28;20038;-71
2022/09/08 02:44:11;;;;;;;8.77;8.18;;;;;;;;;;5004839;28;20045;-72
2022/09/08 02:46:38;;;;;;;10.13;8.77;;;;;;;;;;5003485;28;20442;-72
2022/09/08 02:49:04;;;;;;;9.27;8.60;;;;;;;;;;5009734;28;20084;-71
2022/09/08 02:51:31;;;;;;;9.88;8.80;;;;;;;;;;5006363;28;20030;-72
2022/09/08 02:53:56;;;;;;;9.10;8.20;;;;;;;;;;5005333;28;20121;-71
2022/09/08 02:56:22;;;;;;;9.25;8.45;;;;;;;;;;5008470;28;21724;-72
2022/09/08 02:58:47;;;;;;;9.20;8.38;;;;;;;;;;5007239;28;20034;-72
2022/09/08 03:01:13;;;;;;;10.98;8.75;;;;;;;;;;5002049;28;20041;-74
2022/09/08 03:03:39;;;;;;;8.90;8.30;;;;;;;;;;5004143;28;20033;-73
2022/09/08 03:06:05;;;;;;;8.70;8.10;;;;;;;;;;5005655;28;20061;-72
2022/09/08 03:08:31;;;;;;;8.98;8.38;;;;;;;;;;5006187;28;20109;-72
2022/09/08 03:10:57;;;;;;;8.68;7.78;;;;;;;;;;5003760;28;20030;-73
2022/09/08 03:13:24;;;;;;;8.07;7.50;;;;;;;;;;5003120;28;20089;-72
2022/09/08 03:15:50;;;;;;;9.68;8.40;;;;;;;;;;5007386;28;20080;-70
2022/09/08 03:18:16;;;;;;;8.55;7.97;;;;;;;;;;5006733;28;20496;-71
2022/09/08 03:20:42;;;;;;;8.40;7.88;;;;;;;;;;5001800;28;20026;-72
2022/09/08 03:23:13;;;;;;;8.25;7.75;;;;;;;;;;5005674;28;20046;-74
2022/09/08 03:25:39;;;;;;;8.43;7.72;;;;;;;;;;5003821;28;20034;-72
2022/09/08 03:28:05;;;;;;;8.43;7.63;;;;;;;;;;5006512;28;20172;-72
2022/09/08 03:30:31;;;;;;;7.85;7.25;;;;;;;;;;5004247;28;20129;-72
2022/09/08 03:32:57;;;;;;;7.93;7.30;;;;;;;;;;5006363;28;20128;-72
2022/09/08 03:35:23;;;;;;;7.72;7.22;;;;;;;;;;5002613;28;20057;-72
2022/09/08 03:37:48;;;;;;;8.07;7.50;;;;;;;;;;5003408;28;20046;-72
2022/09/08 03:40:16;;;;;;;8.25;7.47;;;;;;;;;;5002415;28;20034;-70
2022/09/08 03:42:43;;;;;;;7.82;7.43;;;;;;;;;;5005734;28;20536;-71
2022/09/08 03:45:13;;;;;;;8.18;7.57;;;;;;;;;;5003887;28;20485;-71
2022/09/08 03:47:39;;;;;;;8.48;7.70;;;;;;;;;;5003131;28;20034;-71
2022/09/08 03:50:05;;;;;;;8.13;7.63;;;;;;;;;;5009250;28;20113;-71
2022/09/08 03:52:31;;;;;;;8.30;7.80;;;;;;;;;;5008060;28;20067;-73
2022/09/08 03:54:57;;;;;;;8.38;7.70;;;;;;;;;;4999267;28;20069;-73
2022/09/08 03:57:26;;;;;;;8.15;7.57;;;;;;;;;;5003217;28;20041;-72
2022/09/08 03:59:53;;;;;;;7.87;7.37;;;;;;;;;;5004131;28;20547;-72
2022/09/08 04:02:20;;;;;;;7.82;7.32;;;;;;;;;;5005452;28;20305;-72
2022/09/08 04:04:51;;;;;;;8.38;7.68;;;;;;;;;;4998871;28;20034;-71
2022/09/08 04:07:18;;;;;;;8.43;7.80;;;;;;;;;;5004559;28;20157;-71
2022/09/08 04:09:44;;;;;;;8.02;7.53;;;;;;;;;;5004292;28;20057;-71
2022/09/08 04:12:11;;;;;;;7.85;7.35;;;;;;;;;;5000729;28;20064;-71
2022/09/08 04:14:38;;;;;;;8.50;7.70;;;;;;;;;;4998548;28;20753;-71
2022/09/08 04:17:05;;;;;;;8.25;7.55;;;;;;;;;;5001740;28;20030;-71
2022/09/08 04:19:31;;;;;;;9.05;8.35;;;;;;;;;;5008352;28;20037;-71
2022/09/08 04:21:57;;;;;;;9.02;8.13;;;;;;;;;;5012877;28;20198;-70
2022/09/08 04:24:23;;;;;;;8.00;7.50;;;;;;;;;;5013141;28;20041;-72
2022/09/08 04:26:48;;;;;;;8.50;7.90;;;;;;;;;;5009831;28;20113;-70
2022/09/08 04:29:15;;;;;;;8.38;7.78;;;;;;;;;;5008271;28;20038;-71
2022/09/08 04:31:42;;;;;;;7.85;7.25;;;;;;;;;;5011649;28;20040;-71
2022/09/08 04:34:07;;;;;;;7.60;7.10;;;;;;;;;;5009696;28;20056;-72
2022/09/08 04:36:33;;;;;;;16.00;7.80;;;;;;;;;;5011482;28;20466;-74
2022/09/08 04:39:00;;;;;;;7.78;7.28;;;;;;;;;;5007282;28;20026;-70
2022/09/08 04:41:29;;;;;;;9.13;7.80;;;;;;;;;;5003000;28;21142;-71
2022/09/08 04:43:56;;;;;;;8.00;7.50;;;;;;;;;;5006301;28;20033;-71
2022/09/08 04:46:22;;;;;;;8.57;7.80;;;;;;;;;;5010233;28;20057;-71
2022/09/08 04:48:48;;;;;;;8.68;8.07;;;;;;;;;;5011792;28;20389;-71
2022/09/08 04:51:16;;;;;;;8.50;7.75;;;;;;;;;;5011015;28;20030;-71
2022/09/08 04:53:43;;;;;;;7.50;7.00;;;;;;;;;;5008540;28;20030;-71
2022/09/08 04:56:09;;;;;;;8.45;7.88;;;;;;;;;;5014084;28;20034;-72
2022/09/08 04:58:38;;;;;;;8.20;7.60;;;;;;;;;;5012283;28;20033;-72
2022/09/08 05:01:13;;;;;;;8.38;7.70;;;;;;;;;;5010301;28;20033;-73
2022/09/08 05:03:39;;;;;;;8.63;8.13;;;;;;;;;;5010092;28;20030;-71
2022/09/08 05:06:10;;;;;;;8.40;7.80;;;;;;;;;;5011145;28;20567;-70
2022/09/08 05:08:36;;;;;;;8.55;8.05;;;;;;;;;;5008121;28;20030;-71
2022/09/08 05:11:02;;;;;;;9.05;8.35;;;;;;;;;;5009200;28;20034;-70
2022/09/08 05:13:29;;;;;;;8.02;7.22;;;;;;;;;;5009652;28;20060;-71
2022/09/08 05:16:13;;;;;;;8.52;7.93;;;;;;;;;;5011423;28;20356;-71
2022/09/08 05:18:39;;;;;;;8.38;7.85;;;;;;;;;;5010138;28;20381;-72
2022/09/08 05:21:07;;;;;;;8.45;7.95;;;;;;;;;;5013308;28;20029;-71
2022/09/08 05:23:33;;;;;;;8.20;7.70;;;;;;;;;;5010771;28;20033;-72
2022/09/08 05:26:06;;;;;;;8.38;7.55;;;;;;;;;;5007359;28;20091;-71
2022/09/08 05:28:35;;;;;;;8.20;7.70;;;;;;;;;;5010763;28;20033;-72
2022/09/08 05:31:01;;;;;;;8.13;7.63;;;;;;;;;;5009545;28;20375;-71
2022/09/08 05:33:27;;;;;;;8.43;7.82;;;;;;;;;;5011960;28;20041;-70
2022/09/08 05:35:53;;;;;;;8.43;7.88;;;;;;;;;;5008644;28;22188;-72
2022/09/08 05:38:19;;;;;;;8.18;7.57;;;;;;;;;;5009865;28;20030;-71
2022/09/08 05:40:45;;;;;;;8.82;8.13;;;;;;;;;;5008453;28;20141;-72
2022/09/08 05:43:12;;;;;;;8.27;7.80;;;;;;;;;;5011032;28;20185;-70
2022/09/08 05:45:37;;;;;;;8.88;8.27;;;;;;;;;;5005598;28;20073;-70
2022/09/08 05:48:03;;;;;;;8.75;8.15;;;;;;;;;;5010063;28;20088;-69
2022/09/08 05:50:34;;;;;;;8.68;7.97;;;;;;;;;;5009560;28;20509;-73
2022/09/08 05:53:02;;;;;;;8.52;7.93;;;;;;;;;;5008744;28;20033;-74
2022/09/08 05:55:28;;;;;;;8.73;8.23;;;;;;;;;;5010556;28;20068;-70
2022/09/08 05:57:56;;;;;;;8.95;8.45;;;;;;;;;;5014139;28;20037;-70
2022/09/08 06:00:22;;;;;;;9.68;8.98;;;;;;;;;;5009667;28;20504;-71
2022/09/08 06:02:52;;;;;;;8.70;8.20;;;;;;;;;;5006584;28;20041;-71
2022/09/08 06:05:22;;;;;;;9.32;8.73;;;;;;;;;;5009756;28;20045;-70
2022/09/08 06:07:49;;;;;;;8.70;8.10;;;;;;;;;;5011380;28;20030;-71
2022/09/08 06:10:16;;;;;;;9.20;8.52;;;;;;;;;;5011363;28;20561;-72
2022/09/08 06:12:42;;;;;;;8.30;7.80;;;;;;;;;;5006183;28;20104;-73
2022/09/08 06:15:08;;;;;;;9.43;8.82;;;;;;;;;;5012831;28;20473;-72
2022/09/08 06:17:35;;;;;;;9.32;8.40;;;;;;;;;;5011713;28;20042;-72
2022/09/08 06:20:01;;;;;;;9.10;8.50;;;;;;;;;;5008378;28;20109;-73
2022/09/08 06:22:32;;;;;;;8.57;8.07;;;;;;;;;;5009960;28;20040;-74
2022/09/08 06:24:59;;;;;;;8.25;7.75;;;;;;;;;;5012834;28;20049;-74
2022/09/08 06:27:51;;;;;;;8.85;8.15;;;;;;;;;;5008118;28;20041;-72
2022/09/08 06:30:18;;;;;;;9.15;8.45;;;;;;;;;;5001592;28;20120;-72
2022/09/08 06:32:52;;;;;;;9.02;8.48;;;;;;;;;;5010661;28;20044;-72
2022/09/08 06:35:28;;;;;;;9.02;8.43;;;;;;;;;;5010787;28;20042;-72
2022/09/08 06:37:59;;;;;;;9.23;8.63;;;;;;;;;;5011321;28;20489;-75
2022/09/08 06:40:30;;;;;;;9.30;8.55;;;;;;;;;;5007558;28;20077;-71
2022/09/08 06:43:02;;;;;;;8.77;8.07;;;;;;;;;;5009398;28;20129;-71
2022/09/08 06:45:34;;;;;;;8.90;7.97;;;;;;;;;;5011862;28;20037;-72
2022/09/08 06:48:06;;;;;;;8.75;8.15;;;;;;;;;;5005039;28;20049;-73
2022/09/08 06:50:35;;;;;;;8.10;7.55;;;;;;;;;;5009145;28;20037;-71
2022/09/08 06:53:08;;;;;;;8.55;8.05;;;;;;;;;;5007915;28;20469;-72
2022/09/08 06:55:49;;;;;;;8.52;8.02;;;;;;;;;;5006678;28;20129;-72
2022/09/08 06:58:30;;;;;;;9.10;8.48;;;;;;;;;;5007345;28;20048;-73
2022/09/08 07:01:21;;;;;;;8.90;8.20;;;;;;;;;;5007619;28;20037;-73
2022/09/08 07:04:17;;;;;;;9.10;8.40;;;;;;;;;;5007347;28;20029;-72
2022/09/08 07:06:53;;;;;;;8.57;8.07;;;;;;;;;;5011797;28;20042;-72
2022/09/08 07:09:36;;;;;;;9.10;8.40;;;;;;;;;;5008427;28;20489;-72
2022/09/08 07:12:16;;;;;;;8.55;7.72;;;;;;;;;;5004149;28;20401;-74
2022/09/08 07:15:30;;;;;;;8.57;8.00;;;;;;;;;;5009087;28;20034;-73
2022/09/08 07:18:12;;;;;;;8.80;8.25;;;;;;;;;;4940614;28;20527;-73
2022/09/08 07:20:37;;;;;;;8.57;8.07;;;;;;;;;;5007822;28;20073;-71
2022/09/08 07:23:09;;;;;;;9.07;8.30;;;;;;;;;;5006176;28;20066;-72
2022/09/08 07:25:37;;;;;;;9.00;8.10;;;;;;;;;;5008377;28;20501;-73
2022/09/08 07:28:14;;;;;;;8.60;7.90;;;;;;;;;;5008606;28;20041;-73
2022/09/08 07:30:41;;;;;;;10.20;8.60;;;;;;;;;;5001663;28;20041;-71
2022/09/08 07:33:15;;;;;;;8.40;7.90;;;;;;;;;;5012074;28;20483;-73
2022/09/08 07:36:00;;;;;;;8.80;8.10;;;;;;;;;;5010042;28;20517;-70
2022/09/08 07:38:39;;;;;;;9.07;8.48;;;;;;;;;;5006305;28;20038;-72
2022/09/08 07:41:07;;;;;;;9.00;8.40;;;;;;;;;;5005479;28;20030;-73
2022/09/08 07:43:32;;;;;;;8.98;8.48;;;;;;;;;;5007303;28;20041;-73
2022/09/08 07:46:28;;;;;;;9.20;8.50;;;;;;;;;;5007832;28;20053;-73
2022/09/08 07:49:05;;;;;;;9.05;8.45;;;;;;;;;;5008568;28;20033;-72
2022/09/08 07:51:36;;;;;;;8.27;7.68;;;;;;;;;;5007053;28;20054;-73
2022/09/08 07:54:25;;;;;;;8.57;7.97;;;;;;;;;;5007477;28;20037;-72
2022/09/08 07:57:04;;;;;;;;;;;;;;;;;;5011147;28;20128;-72
2022/09/08 07:59:48;;;;;;;8.18;7.68;;;;;;;;;;5010274;28;19913;-72
2022/09/08 08:02:22;;;;;;;8.32;7.72;;;;;;;;;;5005052;28;20121;-70
2022/09/08 08:04:59;;;;;;;8.27;7.72;;;;;;;;;;5009237;28;20121;-72
2022/09/08 08:07:53;;;;;;;7.95;7.55;;;;;;;;;;5004969;28;20502;-72
2022/09/08 08:10:25;;;;;;;8.10;7.68;;;;;;;;;;5008690;28;20389;-71
2022/09/08 08:13:00;;;;;;;9.00;8.40;;;;;;;;;;5004139;28;20041;-73
2022/09/08 08:15:42;;;;;;;8.85;8.23;;;;;;;;;;5008400;28;20105;-72
2022/09/08 08:18:19;;;;;;;8.57;8.05;;;;;;;;;;5005644;28;20041;-71
2022/09/08 08:20:53;;;;;;;8.95;8.25;;;;;;;;;;5005086;28;20033;-72
2022/09/08 08:23:46;;;;;;;8.23;7.78;;;;;;;;;;5008923;28;21556;-72
2022/09/08 08:26:31;;;;;;;7.93;7.32;;;;;;;;;;5008340;28;20041;-70
2022/09/08 08:29:17;;;;;;;8.02;7.60;;;;;;;;;;5008863;28;20045;-72
2022/09/08 08:31:57;;;;;;;7.30;6.90;;;;;;;;;;5004291;28;20021;-71
2022/09/08 08:34:29;;;;;;;7.60;7.10;;;;;;;;;;5007639;28;20030;-69
2022/09/08 08:37:02;;;;;;;7.78;7.25;;;;;;;;;;5006745;28;20026;-71
2022/09/08 08:39:29;;;;;;;8.40;7.78;;;;;;;;;;5003997;28;20108;-71
2022/09/08 08:42:09;;;;;;;7.70;7.00;;;;;;;;;;5009287;28;20025;-71
2022/09/08 08:44:45;;;;;;;8.55;7.78;;;;;;;;;;5007697;28;20229;-71
2022/09/08 08:47:58;;;;;;;7.75;7.10;;;;;;;;;;5009426;28;20030;-71
2022/09/08 08:50:36;;;;;;;7.53;7.03;;;;;;;;;;5006226;28;20401;-71
2022/09/08 08:53:32;;;;;;;7.30;6.90;;;;;;;;;;5007142;28;20512;-71
2022/09/08 08:56:17;;;;;;;8.05;7.55;;;;;;;;;;5006293;28;20084;-71
2022/09/08 08:59:11;;;;;;;7.88;7.28;;;;;;;;;;5004619;28;20064;-69
2022/09/08 09:01:52;;;;;;;8.13;7.70;;;;;;;;;;5007089;28;20038;-71
2022/09/08 09:04:38;;;;;;;7.68;7.18;;;;;;;;;;5011344;28;20037;-71
2022/09/08 09:07:31;;;;;;;7.68;7.18;;;;;;;;;;5007531;28;20390;-71
2022/09/08 09:10:21;;;;;;;8.18;7.68;;;;;;;;;;5010867;28;20116;-71
2022/09/08 09:13:05;;;;;;;8.60;7.80;;;;;;;;;;5007550;28;20064;-71
2022/09/08 09:15:42;;;;;;;8.65;7.95;;;;;;;;;;5010015;28;20489;-71
2022/09/08 09:18:38;;;;;;;8.07;7.47;;;;;;;;;;5010809;28;20126;-71
2022/09/08 09:21:39;;;;;;;8.30;7.80;;;;;;;;;;5012857;28;20064;-71
2022/09/08 09:24:20;;;;;;;7.82;7.35;;;;;;;;;;4976067;28;20034;-71
2022/09/08 09:26:53;;;;;;;8.35;7.80;;;;;;;;;;5011655;28;20115;-71
2022/09/08 09:29:26;;;;;;;8.50;7.68;;;;;;;;;;5010573;28;20458;-71
2022/09/08 09:32:38;;;;;;;8.10;7.50;;;;;;;;;;5009052;28;20064;-71
2022/09/08 09:35:14;;;;;;;9.05;8.35;;;;;;;;;;5011032;28;20033;-71
2022/09/08 09:37:53;;;;;;;8.30;7.80;;;;;;;;;;5007465;28;20168;-71
2022/09/08 09:40:50;;;;;;;8.02;7.53;;;;;;;;;;5010608;28;20040;-71
2022/09/08 09:43:31;;;;;;;9.30;8.00;;;;;;;;;;5011825;28;20045;-71
2022/09/08 09:46:15;;;;;;;7.50;7.10;;;;;;;;;;5010592;28;20401;-71
2022/09/08 09:48:50;;;;;;;7.80;6.60;;;;;;;;;;5007997;28;20092;-71
2022/09/08 09:51:34;;;;;;;8.30;7.80;;;;;;;;;;5010977;28;20454;-72
2022/09/08 09:54:16;;;;;;;8.07;7.25;;;;;;;;;;5009031;28;20030;-73
2022/09/08 09:57:19;;;;;;;8.25;7.65;;;;;;;;;;5010104;28;20069;-72
2022/09/08 09:59:56;;;;;;;8.27;7.68;;;;;;;;;;5007294;28;20232;-72
2022/09/08 10:02:50;;;;;;;8.82;8.00;;;;;;;;;;5009644;28;20040;-72
2022/09/08 10:05:37;;;;;;;7.45;7.05;;;;;;;;;;5011058;28;20121;-73
2022/09/08 10:08:36;;;;;;;7.95;7.30;;;;;;;;;;5006047;28;20034;-72
2022/09/08 10:11:36;;;;;;;7.80;7.30;;;;;;;;;;5011566;28;20038;-73
2022/09/08 10:14:24;;;;;;;7.80;7.30;;;;;;;;;;5009720;28;20457;-74
2022/09/08 10:17:27;;;;;;;8.30;7.80;;;;;;;;;;5005329;28;20030;-74
2022/09/08 10:20:26;;;;;;;8.75;8.05;;;;;;;;;;5008654;28;20068;-72
2022/09/08 10:23:04;;;;;;;8.10;7.60;;;;;;;;;;5012822;28;20061;-72
2022/09/08 10:25:33;;;;;;;7.80;7.40;;;;;;;;;;5007747;28;20497;-72
2022/09/08 10:28:31;;;;;;;7.82;7.22;;;;;;;;;;5008603;28;20202;-73
2022/09/08 10:31:35;;;;;;;7.70;7.10;;;;;;;;;;5009957;28;20025;-72
2022/09/08 10:34:38;;;;;;;7.00;6.50;;;;;;;;;;4991591;28;20053;-73
2022/09/08 10:37:11;;;;;;;7.55;7.05;;;;;;;;;;5008366;28;20046;-72
2022/09/08 10:40:10;;;;;;;7.80;7.20;;;;;;;;;;5011068;28;20033;-72
2022/09/08 10:43:03;;;;;;;7.57;7.07;;;;;;;;;;5006955;28;20036;-72
2022/09/08 10:45:52;;;;;;;7.63;7.13;;;;;;;;;;5007950;28;20052;-71
2022/09/08 10:48:39;;;;;;;8.07;7.38;;;;;;;;;;5005950;28;20505;-72
2022/09/08 10:51:27;;;;;;;7.65;7.10;;;;;;;;;;5003324;28;20030;-71
2022/09/08 10:54:08;;;;;;;7.43;6.97;;;;;;;;;;5006600;28;20034;-72
2022/09/08 10:56:35;;;;;;;7.47;7.05;;;;;;;;;;5008222;28;20034;-72
2022/09/08 10:59:13;;;;;;;8.13;7.63;;;;;;;;;;5008030;28;20029;-72
2022/09/08 11:02:05;;;;;;;7.75;7.35;;;;;;;;;;5007702;28;20034;-72
2022/09/08 11:04:45;;;;;;;8.38;7.78;;;;;;;;;;4979556;28;20135;-71
2022/09/08 11:07:39;;;;;;;8.20;7.50;;;;;;;;;;5006439;28;20029;-71
2022/09/08 11:10:34;;;;;;;8.30;7.70;;;;;;;;;;5006453;28;20022;-70
2022/09/08 11:13:12;;;;;;;7.70;7.30;;;;;;;;;;5007093;28;20067;-70
2022/09/08 11:15:56;;;;;;;8.10;7.47;;;;;;;;;;5006134;28;20030;-71
2022/09/08 11:18:29;;;;;;;8.13;7.43;;;;;;;;;;5007904;28;20030;-71
2022/09/08 11:20:59;;;;;;;7.50;7.00;;;;;;;;;;5009516;28;20033;-71
2022/09/08 11:23:43;;;;;;;7.65;7.15;;;;;;;;;;5004344;28;20034;-71
2022/09/08 11:26:09;;;;;;;8.30;7.70;;;;;;;;;;5006892;28;20046;-71
2022/09/08 11:29:05;;;;;;;8.15;7.65;;;;;;;;;;5009269;28;20030;-70
2022/09/08 11:31:57;;;;;;;7.97;7.47;;;;;;;;;;4995309;28;20036;-71
2022/09/08 11:34:32;;;;;;;8.00;7.40;;;;;;;;;;5007051;28;20553;-70
2022/09/08 11:37:13;;;;;;;8.10;7.60;;;;;;;;;;5006659;28;20045;-71
2022/09/08 11:40:06;;;;;;;8.27;7.60;;;;;;;;;;5007850;28;20042;-70
2022/09/08 11:42:32;;;;;;;8.15;7.60;;;;;;;;;;5003610;28;20041;-71
2022/09/08 11:45:19;;;;;;;9.00;8.40;;;;;;;;;;5008322;28;20034;-72
2022/09/08 11:48:03;;;;;;;8.40;7.90;;;;;;;;;;5009116;28;20041;-72
2022/09/08 11:51:00;;;;;;;7.70;7.13;;;;;;;;;;5005532;28;20298;-71
2022/09/08 11:54:05;;;;;;;7.38;6.88;;;;;;;;;;5010712;28;20037;-72
2022/09/08 11:56:36;;;;;;;8.00;7.40;;;;;;;;;;5006829;28;20041;-72
2022/09/08 11:59:02;;;;;;;8.15;7.35;;;;;;;;;;5001919;28;20061;-71
2022/09/08 12:01:36;;;;;;;7.47;7.07;;;;;;;;;;5010207;28;20119;-70
2022/09/08 12:04:39;;;;;;;7.90;7.38;;;;;;;;;;5004025;28;20033;-70
2022/09/08 12:07:04;;;;;;;7.57;7.10;;;;;;;;;;5007992;28;20049;-72
2022/09/08 12:09:52;;;;;;;7.50;6.90;;;;;;;;;;5005530;28;20045;-71
2022/09/08 12:12:51;;;;;;;7.72;7.32;;;;;;;;;;5007511;28;20096;-70
2022/09/08 12:15:32;;;;;;;8.13;7.60;;;;;;;;;;5004695;28;20038;-72
2022/09/08 12:18:17;;;;;;;7.75;7.05;;;;;;;;;;5008382;28;20052;-72
2022/09/08 12:20:59;;;;;;;7.90;7.30;;;;;;;;;;5002937;28;20038;-70
2022/09/08 12:23:35;;;;;;;7.90;7.40;;;;;;;;;;5005700;28;20041;-71
2022/09/08 12:26:19;;;;;;;7.25;6.85;;;;;;;;;;5001699;28;20066;-71
2022/09/08 12:29:05;;;;;;;7.63;6.93;;;;;;;;;;5004564;28;20029;-71
2022/09/08 12:31:31;;;;;;;8.30;7.80;;;;;;;;;;5000961;28;20383;-71
2022/09/08 12:34:15;;;;;;;8.80;8.10;;;;;;;;;;5005338;28;20034;-70
2022/09/08 12:36:43;;;;;;;7.60;7.10;;;;;;;;;;5004756;28;20164;-72
2022/09/08 12:39:32;;;;;;;8.52;7.72;;;;;;;;;;5001206;28;20550;-72
2022/09/08 12:42:23;;;;;;;8.45;7.75;;;;;;;;;;5006831;28;20460;-72
2022/09/08 12:44:57;;;;;;;7.38;6.90;;;;;;;;;;5009457;28;20517;-72
2022/09/08 12:47:34;;;;;;;7.65;6.95;;;;;;;;;;5015361;28;20676;-73
2022/09/08 12:50:14;;;;;;;8.05;7.55;;;;;;;;;;5010558;28;20046;-72
2022/09/08 12:52:40;;;;;;;7.57;7.07;;;;;;;;;;5007885;28;20522;-73
2022/09/08 12:55:53;;;;;;;7.10;6.70;;;;;;;;;;5009025;28;20034;-74
2022/09/08 12:58:22;;;;;;;7.50;7.00;;;;;;;;;;4948785;28;20048;-72
2022/09/08 13:00:56;;;;;;;7.70;7.10;;;;;;;;;;5008148;28;20649;-72
2022/09/08 13:03:43;;;;;;;7.70;7.10;;;;;;;;;;5011667;28;20556;-73
2022/09/08 13:06:36;;;;;;;8.05;7.45;;;;;;;;;;5008988;28;20477;-73
2022/09/08 13:09:24;;;;;;;7.88;7.38;;;;;;;;;;5004210;28;20425;-73
2022/09/08 13:12:28;;;;;;;7.72;7.22;;;;;;;;;;5007938;28;20473;-73
2022/09/08 13:15:03;;;;;;;7.53;7.00;;;;;;;;;;5008989;28;20099;-70
2022/09/08 13:17:49;;;;;;;7.97;7.47;;;;;;;;;;5003902;28;20140;-71
2022/09/08 13:20:38;;;;;;;8.10;7.43;;;;;;;;;;5007140;28;20041;-73
2022/09/08 13:23:16;;;;;;;7.72;7.22;;;;;;;;;;5006488;28;20050;-73
2022/09/08 13:25:44;;;;;;;8.15;7.57;;;;;;;;;;5006827;28;20041;-72
2022/09/08 13:28:38;;;;;;;8.27;7.75;;;;;;;;;;5007437;28;20044;-73
2022/09/08 13:31:26;;;;;;;7.35;6.90;;;;;;;;;;5005729;28;20094;-73
2022/09/08 13:34:10;;;;;;;6.53;6.00;;;;;;;;;;5006924;28;20597;-73
2022/09/08 13:37:07;;;;;;;6.68;6.28;;;;;;;;;;5009402;28;20054;-72
2022/09/08 13:40:04;;;;;;;7.25;6.75;;;;;;;;;;5008538;28;20037;-73
2022/09/08 13:42:59;;;;;;;7.45;6.80;;;;;;;;;;5006087;28;20133;-70
2022/09/08 13:45:43;;;;;;;7.25;6.63;;;;;;;;;;5009703;28;20588;-71
2022/09/08 13:48:24;;;;;;;7.80;7.30;;;;;;;;;;5008861;28;20045;-72
2022/09/08 13:51:10;;;;;;;7.63;7.05;;;;;;;;;;5012967;28;20083;-73
2022/09/08 13:53:59;;;;;;;7.63;6.93;;;;;;;;;;5003804;28;20041;-72
2022/09/08 13:56:40;;;;;;;7.43;6.93;;;;;;;;;;4976776;28;20052;-71
2022/09/08 13:59:19;;;;;;;7.53;6.82;;;;;;;;;;5008988;28;20409;-71
2022/09/08 14:01:48;;;;;;;8.20;7.50;;;;;;;;;;5004512;28;20034;-71
2022/09/08 14:04:13;;;;;;;7.28;6.78;;;;;;;;;;5008596;28;20046;-73
2022/09/08 14:06:48;;;;;;;8.00;7.40;;;;;;;;;;5007229;28;20092;-72
2022/09/08 14:09:26;;;;;;;7.60;7.10;;;;;;;;;;5005502;28;20042;-71
2022/09/08 14:11:56;;;;;;;7.72;7.13;;;;;;;;;;5004643;28;20034;-72
2022/09/08 14:14:27;;;;;;;8.48;7.00;;;;;;;;;;5009991;28;20125;-71
2022/09/08 14:17:06;;;;;;;8.20;7.40;;;;;;;;;;5006610;28;20776;-72
2022/09/08 14:20:01;;;;;;;8.02;7.32;;;;;;;;;;5006946;28;20494;-72
2022/09/08 14:22:32;;;;;;;7.68;6.95;;;;;;;;;;5005812;28;20517;-71
2022/09/08 14:25:02;;;;;;;6.85;6.35;;;;;;;;;;5027389;28;20100;-69
2022/09/08 14:28:09;;;;;;;7.30;6.80;;;;;;;;;;5011465;28;20640;-72
2022/09/08 14:30:55;;;;;;;7.25;6.80;;;;;;;;;;5004633;28;20033;-72
2022/09/08 14:33:34;;;;;;;7.82;6.53;;;;;;;;;;5006580;28;20088;-72
2022/09/08 14:36:18;;;;;;;;;;;;;;;;;;5007233;28;20436;-69
2022/09/08 14:39:09;;;;;;;7.72;7.15;;;;;;;;;;5007431;28;20010;-72
2022/09/08 14:41:57;;;;;;;7.20;6.80;;;;;;;;;;4991213;28;20049;-72
2022/09/08 14:44:29;;;;;;;7.43;6.72;;;;;;;;;;5010126;28;20034;-71
2022/09/08 14:47:03;;;;;;;7.72;7.13;;;;;;;;;;5010889;28;20080;-72
2022/09/08 14:49:38;;;;;;;7.07;6.55;;;;;;;;;;5005131;28;20049;-73
2022/09/08 14:52:25;;;;;;;7.22;6.63;;;;;;;;;;5005567;28;20034;-72
2022/09/08 14:55:22;;;;;;;7.25;6.75;;;;;;;;;;5008521;28;20037;-72
2022/09/08 14:57:50;;;;;;;7.22;6.72;;;;;;;;;;5001749;28;20481;-73
2022/09/08 15:00:36;;;;;;;7.40;6.85;;;;;;;;;;5005733;28;20038;-72
2022/09/08 15:03:18;;;;;;;7.25;6.65;;;;;;;;;;5006375;28;20049;-73
2022/09/08 15:05:46;;;;;;;7.63;6.90;;;;;;;;;;5006586;28;20029;-70
2022/09/08 15:08:21;;;;;;;7.20;6.57;;;;;;;;;;5009101;28;20045;-71
2022/09/08 15:11:11;;;;;;;7.13;6.50;;;;;;;;;;5007943;28;20156;-71
2022/09/08 15:14:01;;;;;;;7.72;6.65;;;;;;;;;;5004589;28;20437;-70
2022/09/08 15:16:29;;;;;;;8.45;7.40;;;;;;;;;;5003135;28;20393;-72
2022/09/08 15:19:20;;;;;;;7.93;7.35;;;;;;;;;;5007430;28;20116;-71
2022/09/08 15:21:50;;;;;;;7.57;6.97;;;;;;;;;;4998638;28;20120;-71
2022/09/08 15:24:34;;;;;;;7.60;7.00;;;;;;;;;;5006262;28;20053;-73
2022/09/08 15:27:15;;;;;;;7.30;6.60;;;;;;;;;;5001237;28;20045;-71
2022/09/08 15:29:57;;;;;;;7.57;6.82;;;;;;;;;;5021131;28;20374;-71
2022/09/08 15:32:45;;;;;;;7.30;6.70;;;;;;;;;;5002779;28;20486;-71
2022/09/08 15:35:37;;;;;;;7.18;6.68;;;;;;;;;;5007606;28;20037;-71
2022/09/08 15:38:49;;;;;;;7.60;7.00;;;;;;;;;;5007763;28;20475;-71